Time;durP1;ratioP1;P1;durP2;ratioP2;P2;SDS_P1;SDS_P2;PMS_P1;PMS_P2;Temp;Humidity;BMP_temperature;BMP_pressure;BME280_temperature;BME280_humidity;BME280_pressure;Samples;Min_cycle;Max_cycle;Signal;HPM_P1;HPM_P2
2023/06/10 00:02:11;;;;;;;8.60;5.80;;;;;;;23.67;49.17;101137.25;3581483;39;20678;-68
2023/06/10 00:04:37;;;;;;;7.57;5.57;;;;;;;23.61;49.33;101136.06;3585028;39;20072;-68
2023/06/10 00:07:08;;;;;;;7.03;5.60;;;;;;;23.58;49.90;101139.16;3586912;39;20597;-69
2023/06/10 00:09:37;;;;;;;6.28;5.70;;;;;;;23.53;49.24;101141.53;3587134;39;20116;-69
2023/06/10 00:12:06;;;;;;;9.15;5.72;;;;;;;23.52;49.15;101142.56;3584335;39;20091;-68
2023/06/10 00:14:33;;;;;;;6.32;5.55;;;;;;;23.49;49.26;101140.19;3583069;39;20473;-68
2023/06/10 00:16:59;;;;;;;7.65;5.70;;;;;;;23.45;49.29;101138.81;3585614;39;20051;-68
2023/06/10 00:19:29;;;;;;;6.72;6.03;;;;;;;23.42;49.70;101145.50;3581309;39;20067;-68
2023/06/10 00:21:57;;;;;;;7.25;5.70;;;;;;;23.38;49.34;101144.97;3586534;39;20087;-68
2023/06/10 00:24:22;;;;;;;6.30;5.70;;;;;;;23.34;49.77;101142.72;3590414;39;20124;-68
2023/06/10 00:26:48;;;;;;;6.55;5.45;;;;;;;23.28;49.75;101141.56;3589395;39;20297;-70
2023/06/10 00:29:14;;;;;;;8.38;6.30;;;;;;;23.25;50.01;101141.88;3589496;39;20071;-68
2023/06/10 00:31:40;;;;;;;7.82;6.07;;;;;;;23.21;49.92;101140.50;3581496;39;20055;-68
2023/06/10 00:34:09;;;;;;;6.53;5.93;;;;;;;23.15;50.52;101144.78;3585625;39;20076;-68
2023/06/10 00:36:35;;;;;;;6.13;5.40;;;;;;;23.11;50.25;101145.28;3587009;39;20728;-69
2023/06/10 00:39:01;;;;;;;6.63;5.97;;;;;;;23.05;50.67;101144.06;3584105;39;20469;-68
2023/06/10 00:41:27;;;;;;;6.38;5.78;;;;;;;22.97;50.47;101133.09;3588187;39;20102;-68
2023/06/10 00:43:53;;;;;;;6.80;6.20;;;;;;;22.97;51.26;101145.97;3589716;39;20063;-68
2023/06/10 00:46:20;;;;;;;9.15;5.93;;;;;;;22.86;51.06;101145.19;3586149;39;20067;-68
2023/06/10 00:48:46;;;;;;;7.75;6.07;;;;;;;22.81;51.33;101144.84;3581999;39;20107;-69
2023/06/10 00:51:12;;;;;;;8.35;6.28;;;;;;;22.76;51.37;101141.75;3582809;39;20055;-68
2023/06/10 00:53:41;;;;;;;6.70;6.05;;;;;;;22.65;51.62;101133.84;3586614;39;20119;-69
2023/06/10 00:56:07;;;;;;;6.60;6.00;;;;;;;22.35;50.84;101091.44;3588013;39;20067;-69
2023/06/10 00:58:33;;;;;;;6.40;5.80;;;;;;;22.62;51.86;101142.41;3589642;39;20059;-68
2023/06/10 01:00:59;;;;;;;6.32;5.72;;;;;;;22.57;51.91;101144.75;3586309;39;20116;-68
2023/06/10 01:03:25;;;;;;;7.07;6.38;;;;;;;22.52;51.70;101144.38;3585518;39;20126;-68
2023/06/10 01:06:09;;;;;;;8.18;6.20;;;;;;;22.10;52.25;101079.47;3583113;39;20055;-68
2023/06/10 01:09:00;;;;;;;7.00;6.30;;;;;;;22.37;51.93;101136.81;3585316;39;20076;-68
2023/06/10 01:11:56;;;;;;;8.05;6.25;;;;;;;22.33;51.73;101137.28;3584993;39;20099;-68
2023/06/10 01:14:23;;;;;;;8.23;6.10;;;;;;;22.12;52.36;101108.41;3568743;39;20121;-65
2023/06/10 01:16:49;;;;;;;7.22;6.50;;;;;;;22.27;52.45;101146.19;3584832;39;20152;-65
2023/06/10 01:19:17;;;;;;;7.18;6.32;;;;;;;22.19;52.69;101147.84;3584650;39;20056;-68
2023/06/10 01:21:48;;;;;;;7.55;6.15;;;;;;;22.14;52.22;101143.84;3589869;39;20090;-68
2023/06/10 01:24:18;;;;;;;7.10;6.40;;;;;;;22.10;52.02;101147.91;3588288;39;20052;-66
2023/06/10 01:26:49;;;;;;;7.38;6.38;;;;;;;22.06;52.85;101149.28;3591837;39;20047;-66
2023/06/10 01:29:28;;;;;;;7.22;6.28;;;;;;;22.00;53.12;101148.03;3587768;39;20062;-66
2023/06/10 01:32:33;;;;;;;7.93;6.10;;;;;;;21.92;52.73;101148.84;3591597;39;20063;-66
2023/06/10 01:35:02;;;;;;;8.32;6.90;;;;;;;21.79;53.03;101140.22;3582578;39;20597;-66
2023/06/10 01:37:30;;;;;;;7.47;6.45;;;;;;;21.84;52.69;101148.78;3592978;39;20052;-66
2023/06/10 01:40:00;;;;;;;8.57;6.22;;;;;;;21.79;52.43;101153.91;3589586;39;20055;-66
2023/06/10 01:42:26;;;;;;;7.60;6.80;;;;;;;21.72;52.52;101150.06;3585843;39;20058;-67
2023/06/10 01:44:53;;;;;;;7.97;6.90;;;;;;;21.29;53.11;101086.97;3585971;39;20132;-66
2023/06/10 01:47:18;;;;;;;8.52;6.90;;;;;;;21.63;53.45;101151.00;3585902;39;20462;-66
2023/06/10 01:49:44;;;;;;;7.20;6.50;;;;;;;21.55;53.57;101144.47;3584148;39;20055;-66
2023/06/10 01:52:09;;;;;;;8.43;6.50;;;;;;;21.26;53.77;101113.75;3588421;39;20099;-66
2023/06/10 01:54:35;;;;;;;8.35;6.88;;;;;;;21.38;53.81;101153.56;3592239;39;20445;-66
2023/06/10 01:57:06;;;;;;;7.28;6.53;;;;;;;21.33;54.12;101144.94;3581553;39;20056;-66
2023/06/10 01:59:31;;;;;;;7.88;6.18;;;;;;;21.25;54.27;101151.19;3584160;40;20058;-68
2023/06/10 02:01:57;;;;;;;7.65;6.88;;;;;;;21.17;54.38;101150.25;3585308;39;20071;-66
2023/06/10 02:04:23;;;;;;;8.48;6.72;;;;;;;21.13;54.09;101154.31;3585070;39;20091;-68
2023/06/10 02:06:48;;;;;;;7.85;7.15;;;;;;;21.07;54.93;101156.66;3583700;39;20055;-67
2023/06/10 02:09:14;;;;;;;8.48;7.13;;;;;;;21.02;54.96;101153.50;3587293;39;20504;-67
2023/06/10 02:11:39;;;;;;;8.23;7.38;;;;;;;20.91;54.87;101153.75;3586102;39;20047;-67
2023/06/10 02:14:05;;;;;;;8.30;6.70;;;;;;;20.91;55.06;101158.34;3586298;39;20396;-66
2023/06/10 02:16:31;;;;;;;7.30;6.60;;;;;;;20.85;54.75;101165.28;3586739;39;20059;-66
2023/06/10 02:18:57;;;;;;;7.80;7.00;;;;;;;20.79;55.76;101157.69;3584703;39;20099;-66
2023/06/10 02:21:23;;;;;;;7.85;6.85;;;;;;;20.70;55.13;101143.09;3590111;39;20043;-67
2023/06/10 02:23:48;;;;;;;6.90;6.25;;;;;;;20.76;55.92;101161.59;3575946;39;20318;-67
2023/06/10 02:26:14;;;;;;;8.82;7.07;;;;;;;20.35;55.26;101094.66;3585938;39;20074;-66
2023/06/10 02:28:43;;;;;;;9.75;7.70;;;;;;;20.70;56.09;101164.09;3581826;39;20059;-67
2023/06/10 02:31:09;;;;;;;7.82;7.03;;;;;;;20.64;56.10;101166.41;3583197;39;20769;-66
2023/06/10 02:33:34;;;;;;;10.27;7.43;;;;;;;20.63;55.65;101163.84;3588653;39;20092;-66
2023/06/10 02:36:00;;;;;;;9.07;7.55;;;;;;;20.56;55.63;101157.28;3588161;39;20051;-64
2023/06/10 02:38:26;;;;;;;8.75;7.70;;;;;;;20.55;55.94;101167.34;3589240;39;20060;-64
2023/06/10 02:40:51;;;;;;;8.52;7.22;;;;;;;20.55;56.46;101161.00;3581258;39;20052;-64
2023/06/10 02:43:17;;;;;;;7.95;6.85;;;;;;;20.51;56.50;101163.16;3585651;39;20318;-65
2023/06/10 02:45:42;;;;;;;8.00;7.20;;;;;;;20.49;56.20;101159.72;3585034;39;20091;-64
2023/06/10 02:48:08;;;;;;;8.48;7.40;;;;;;;20.46;56.92;101165.47;3583031;39;20346;-64
2023/06/10 02:50:34;;;;;;;8.10;7.40;;;;;;;20.41;56.50;101175.97;3585577;39;20075;-64
2023/06/10 02:53:00;;;;;;;8.57;7.78;;;;;;;20.36;56.96;101153.72;3586862;39;20061;-65
2023/06/10 02:55:26;;;;;;;8.85;7.88;;;;;;;20.38;57.25;101174.41;3587336;39;20055;-65
2023/06/10 02:57:53;;;;;;;10.50;7.07;;;;;;;20.35;56.63;101173.84;3580605;39;20091;-65
2023/06/10 03:00:20;;;;;;;8.80;7.78;;;;;;;20.32;56.76;101160.50;3584660;39;20067;-64
2023/06/10 03:02:45;;;;;;;8.73;7.18;;;;;;;20.33;56.73;101173.13;3584141;39;20062;-65
2023/06/10 03:05:13;;;;;;;8.63;7.78;;;;;;;20.31;57.09;101169.69;3583480;39;20086;-64
2023/06/10 03:07:39;;;;;;;10.70;8.20;;;;;;;20.25;58.21;101170.31;3583273;39;20151;-64
2023/06/10 03:10:06;;;;;;;9.15;8.10;;;;;;;20.22;57.51;101166.00;3588098;39;20052;-66
2023/06/10 03:12:32;;;;;;;8.98;8.07;;;;;;;20.20;58.01;101178.06;3587947;39;20095;-63
2023/06/10 03:14:57;;;;;;;9.43;7.68;;;;;;;20.17;58.25;101169.19;3582059;39;20071;-64
2023/06/10 03:17:23;;;;;;;8.95;8.05;;;;;;;20.14;57.78;101164.03;3582590;39;20421;-64
2023/06/10 03:19:49;;;;;;;9.60;7.70;;;;;;;20.14;58.22;101171.34;3587273;39;20059;-64
2023/06/10 03:22:17;;;;;;;8.90;8.00;;;;;;;19.79;58.41;101125.63;3584818;39;20138;-64
2023/06/10 03:24:43;;;;;;;9.82;7.95;;;;;;;20.08;58.49;101175.53;3584964;39;20064;-65
2023/06/10 03:27:10;;;;;;;9.10;8.20;;;;;;;20.09;59.41;101177.25;3589617;39;20315;-65
2023/06/10 03:29:37;;;;;;;8.65;7.80;;;;;;;20.07;58.50;101179.25;3582487;39;20058;-64
2023/06/10 03:32:03;;;;;;;8.98;8.02;;;;;;;20.06;58.58;101174.81;3585255;39;20098;-63
2023/06/10 03:34:29;;;;;;;9.43;8.52;;;;;;;19.76;59.30;101128.63;3584599;39;20391;-64
2023/06/10 03:36:56;;;;;;;9.65;8.75;;;;;;;20.03;59.21;101188.75;3582939;39;20047;-65
2023/06/10 03:39:23;;;;;;;10.38;8.65;;;;;;;20.02;59.78;101187.03;3584917;39;20064;-65
2023/06/10 03:41:49;;;;;;;9.45;8.55;;;;;;;20.00;59.65;101194.50;3579389;39;20054;-66
2023/06/10 03:44:15;;;;;;;12.18;10.88;;;;;;;19.93;59.30;101187.91;3589440;39;20289;-65
2023/06/10 03:46:41;;;;;;;10.80;9.70;;;;;;;19.87;59.40;101177.59;3584113;39;20052;-66
2023/06/10 03:49:07;;;;;;;10.23;9.20;;;;;;;19.91;59.45;101190.78;3580238;39;20060;-66
2023/06/10 03:51:33;;;;;;;13.32;9.40;;;;;;;19.89;59.75;101194.69;3583630;39;20107;-66
2023/06/10 03:53:58;;;;;;;10.00;8.38;;;;;;;19.89;60.64;101191.97;3584684;39;20051;-66
2023/06/10 03:56:25;;;;;;;11.50;8.50;;;;;;;19.86;60.07;101193.09;3585574;39;20054;-65
2023/06/10 03:58:51;;;;;;;11.38;9.52;;;;;;;19.84;60.44;101188.78;3581225;39;20158;-66
2023/06/10 04:01:17;;;;;;;11.82;9.48;;;;;;;19.78;60.49;101195.69;3584231;39;20056;-65
2023/06/10 04:03:44;;;;;;;11.25;9.05;;;;;;;19.77;60.64;101195.84;3584110;39;20056;-65
2023/06/10 04:06:09;;;;;;;11.13;9.95;;;;;;;19.74;60.36;101188.81;3580496;39;20109;-66
2023/06/10 04:08:35;;;;;;;9.82;8.82;;;;;;;19.74;60.67;101193.41;3583664;40;20102;-65
2023/06/10 04:11:02;;;;;;;11.45;9.35;;;;;;;19.76;61.30;101196.84;3583659;39;20063;-65
2023/06/10 04:13:27;;;;;;;10.63;9.52;;;;;;;19.77;61.28;101193.13;3581040;39;20052;-66
2023/06/10 04:15:54;;;;;;;10.63;9.55;;;;;;;19.78;60.90;101197.56;3583189;39;20145;-66
2023/06/10 04:18:21;;;;;;;11.10;9.93;;;;;;;19.77;61.02;101193.97;3583835;39;20307;-66
2023/06/10 04:20:47;;;;;;;11.93;10.55;;;;;;;19.75;61.21;101189.66;3584263;39;20051;-65
2023/06/10 04:23:12;;;;;;;13.40;11.40;;;;;;;19.74;61.67;101194.25;3578063;39;20147;-66
2023/06/10 04:25:38;;;;;;;12.25;10.70;;;;;;;19.78;61.46;101201.16;3587075;39;20361;-65
2023/06/10 04:28:04;;;;;;;12.38;10.63;;;;;;;19.82;61.93;101201.72;3584693;39;20116;-66
2023/06/10 04:30:31;;;;;;;14.05;11.32;;;;;;;19.83;61.77;101206.19;3584116;39;20052;-66
2023/06/10 04:32:57;;;;;;;11.40;10.20;;;;;;;19.83;61.10;101211.63;3587828;39;20047;-66
2023/06/10 04:35:22;;;;;;;14.65;10.25;;;;;;;19.85;62.04;101212.34;3585850;39;20063;-66
2023/06/10 04:37:48;;;;;;;10.68;9.60;;;;;;;19.18;61.11;101105.84;3587845;39;20059;-66
2023/06/10 04:40:15;;;;;;;10.98;9.88;;;;;;;19.91;61.57;101225.38;3586631;39;20413;-66
2023/06/10 04:42:41;;;;;;;12.65;11.35;;;;;;;19.94;61.21;101215.03;3587079;39;20055;-66
2023/06/10 04:45:08;;;;;;;11.40;10.30;;;;;;;19.98;60.40;101215.63;3573970;40;20064;-67
2023/06/10 04:47:33;;;;;;;10.88;9.88;;;;;;;20.02;60.77;101219.78;3584423;39;20051;-67
2023/06/10 04:50:01;;;;;;;11.85;10.65;;;;;;;20.06;61.04;101220.34;3585166;39;20065;-66
2023/06/10 04:52:27;;;;;;;11.82;10.65;;;;;;;20.08;60.99;101211.00;3584779;39;20058;-66
2023/06/10 04:54:53;;;;;;;12.73;11.23;;;;;;;20.13;60.47;101219.59;3584539;39;20051;-66
2023/06/10 04:57:20;;;;;;;13.13;10.85;;;;;;;20.17;60.94;101222.91;3585356;39;20047;-66
2023/06/10 04:59:46;;;;;;;11.55;10.10;;;;;;;19.94;61.07;101173.25;3583337;39;20394;-66
2023/06/10 05:02:12;;;;;;;12.48;10.73;;;;;;;20.21;60.64;101221.63;3585501;39;20054;-66
2023/06/10 05:04:38;;;;;;;14.38;11.65;;;;;;;20.21;60.99;101218.03;3583860;39;20056;-66
2023/06/10 05:07:04;;;;;;;13.00;10.98;;;;;;;20.25;60.11;101225.75;3584624;39;20063;-66
2023/06/10 05:09:30;;;;;;;11.93;10.73;;;;;;;20.30;60.78;101219.88;3583550;39;20063;-66
2023/06/10 05:11:56;;;;;;;11.70;10.20;;;;;;;20.36;60.28;101221.97;3585130;39;20052;-66
2023/06/10 05:14:21;;;;;;;11.15;9.98;;;;;;;20.41;59.62;101220.53;3585652;39;20119;-66
2023/06/10 05:16:48;;;;;;;11.13;10.02;;;;;;;20.47;59.42;101221.81;3583252;39;20065;-67
2023/06/10 05:19:16;;;;;;;10.77;9.77;;;;;;;20.51;59.49;101225.97;3584460;39;20073;-65
2023/06/10 05:21:42;;;;;;;12.55;9.85;;;;;;;20.55;59.09;101221.06;3582810;39;20048;-64
2023/06/10 05:24:07;;;;;;;10.85;9.68;;;;;;;20.61;59.38;101228.66;3584798;39;20652;-65
2023/06/10 05:26:37;;;;;;;10.90;9.82;;;;;;;20.67;59.13;101221.75;3588115;39;20062;-65
2023/06/10 05:29:03;;;;;;;11.00;9.27;;;;;;;20.69;58.75;101231.53;3581761;39;20360;-66
2023/06/10 05:31:28;;;;;;;11.10;9.35;;;;;;;20.73;59.06;101224.75;3585919;39;20047;-65
2023/06/10 05:33:54;;;;;;;12.20;9.18;;;;;;;20.76;58.18;101220.84;3589208;39;20048;-65
2023/06/10 05:36:20;;;;;;;12.68;9.07;;;;;;;20.81;57.76;101221.28;3586405;39;20430;-65
2023/06/10 05:38:46;;;;;;;10.05;8.68;;;;;;;20.77;57.78;101207.06;3583498;39;20070;-66
2023/06/10 05:41:12;;;;;;;9.55;8.65;;;;;;;20.93;57.90;101220.06;3587396;39;20051;-66
2023/06/10 05:43:38;;;;;;;10.27;9.27;;;;;;;20.98;57.93;101217.69;3587351;39;20059;-65
2023/06/10 05:46:03;;;;;;;11.88;9.57;;;;;;;21.05;57.25;101216.06;3585652;39;20060;-67
2023/06/10 05:48:29;;;;;;;11.93;9.32;;;;;;;20.93;57.48;101195.47;3585154;39;20062;-66
2023/06/10 05:50:54;;;;;;;11.35;9.35;;;;;;;21.17;57.35;101224.06;3583384;39;20239;-64
2023/06/10 05:53:20;;;;;;;11.27;8.98;;;;;;;20.99;56.77;101185.75;3584916;39;20059;-65
2023/06/10 05:55:46;;;;;;;12.02;9.35;;;;;;;21.30;56.64;101238.22;3586874;39;20063;-65
2023/06/10 05:58:13;;;;;;;11.77;8.95;;;;;;;21.35;56.16;101224.97;3585471;39;20059;-65
2023/06/10 06:00:40;;;;;;;11.35;9.32;;;;;;;21.46;56.43;101224.75;3586549;39;20343;-66
2023/06/10 06:03:09;;;;;;;12.60;8.60;;;;;;;21.55;56.01;101226.53;3577592;40;20068;-66
2023/06/10 06:05:37;;;;;;;10.25;8.68;;;;;;;21.65;55.62;101228.34;3576183;39;20111;-66
2023/06/10 06:08:07;;;;;;;10.98;9.05;;;;;;;21.75;55.15;101229.97;3586447;39;20070;-67
2023/06/10 06:10:34;;;;;;;10.23;8.55;;;;;;;21.85;54.65;101226.28;3585077;39;20055;-67
2023/06/10 06:13:01;;;;;;;11.95;8.57;;;;;;;21.97;54.09;101225.00;3583762;39;20052;-67
2023/06/10 06:15:27;;;;;;;9.55;8.57;;;;;;;21.84;54.64;101187.09;3586876;39;20095;-67
2023/06/10 06:17:52;;;;;;;11.70;9.05;;;;;;;22.22;53.70;101237.03;3584633;39;20063;-66
2023/06/10 06:20:19;;;;;;;11.73;8.63;;;;;;;22.35;54.18;101234.72;3584362;39;20051;-66
2023/06/10 06:22:45;;;;;;;10.10;8.63;;;;;;;22.42;52.91;101230.34;3584941;39;20048;-66
2023/06/10 06:25:11;;;;;;;10.35;8.23;;;;;;;22.56;52.47;101231.59;3583026;39;20071;-67
2023/06/10 06:27:36;;;;;;;9.70;8.38;;;;;;;22.71;52.45;101229.09;3582213;39;20087;-66
2023/06/10 06:30:02;;;;;;;11.48;8.45;;;;;;;22.83;51.74;101233.25;3581360;39;20071;-66
2023/06/10 06:32:28;;;;;;;11.98;8.65;;;;;;;22.94;51.22;101230.25;3584862;39;20317;-66
2023/06/10 06:34:54;;;;;;;10.70;8.32;;;;;;;23.11;51.08;101230.31;3585240;39;20066;-65
2023/06/10 06:37:25;;;;;;;11.77;8.13;;;;;;;23.26;50.80;101244.25;3585044;39;20265;-68
2023/06/10 06:39:52;;;;;;;10.68;8.85;;;;;;;23.38;50.45;101242.91;3580481;39;21760;-65
2023/06/10 06:42:18;;;;;;;12.05;8.10;;;;;;;23.54;50.62;101244.81;3585766;39;20059;-66
2023/06/10 06:44:44;;;;;;;9.68;8.60;;;;;;;23.68;49.14;101241.38;3584681;39;20063;-66
2023/06/10 06:47:09;;;;;;;10.23;7.85;;;;;;;23.79;49.34;101243.84;3581391;39;20063;-67
2023/06/10 06:49:35;;;;;;;10.70;7.97;;;;;;;23.94;48.68;101248.63;3583886;39;20063;-66
2023/06/10 06:52:02;;;;;;;10.77;7.45;;;;;;;24.05;49.08;101251.03;3583804;39;20071;-67
2023/06/10 06:54:27;;;;;;;11.65;8.07;;;;;;;24.16;48.10;101247.94;3576868;39;20132;-67
2023/06/10 06:56:53;;;;;;;10.90;7.55;;;;;;;24.23;47.65;101251.72;3584510;39;20052;-66
2023/06/10 06:59:19;;;;;;;8.40;7.40;;;;;;;24.30;48.05;101239.00;3585891;39;20087;-67
2023/06/10 07:01:46;;;;;;;10.10;8.13;;;;;;;24.45;46.83;101247.41;3585347;39;20051;-67
2023/06/10 07:04:14;;;;;;;8.68;7.57;;;;;;;24.55;46.71;101252.72;3586643;39;20059;-67
2023/06/10 07:06:39;;;;;;;9.23;7.70;;;;;;;24.70;46.31;101261.91;3583035;39;20125;-67
2023/06/10 07:09:06;;;;;;;9.30;7.40;;;;;;;24.15;46.45;101147.31;3583414;39;20068;-67
2023/06/10 07:11:31;;;;;;;14.52;8.38;;;;;;;24.90;46.13;101267.03;3586270;39;20280;-67
2023/06/10 07:13:57;;;;;;;10.00;7.10;;;;;;;25.04;45.74;101260.78;3586333;39;20356;-68
2023/06/10 07:16:23;;;;;;;9.25;7.30;;;;;;;25.15;45.92;101265.91;3586117;39;20058;-68
2023/06/10 07:18:48;;;;;;;9.00;7.70;;;;;;;25.10;45.06;101229.78;3585932;39;20310;-68
2023/06/10 07:21:14;;;;;;;7.70;7.00;;;;;;;25.36;45.02;101267.16;3585532;39;20479;-67
2023/06/10 07:23:43;;;;;;;8.35;6.93;;;;;;;25.28;45.21;101234.19;3585005;39;20064;-68
2023/06/10 07:26:10;;;;;;;8.90;6.95;;;;;;;25.43;44.91;101241.47;3582887;39;20056;-67
2023/06/10 07:28:37;;;;;;;9.05;7.53;;;;;;;25.70;44.42;101261.28;3585246;39;20066;-68
2023/06/10 07:31:03;;;;;;;9.40;6.93;;;;;;;25.79;43.75;101256.56;3582238;39;21168;-68
2023/06/10 07:33:29;;;;;;;10.52;9.43;;;;;;;25.93;42.75;101261.28;3586143;39;20284;-68
2023/06/10 07:35:55;;;;;;;8.52;7.45;;;;;;;25.80;43.29;101216.94;3582804;39;20128;-69
2023/06/10 07:38:21;;;;;;;11.48;7.00;;;;;;;25.95;43.10;101228.91;3583673;39;20076;-69
2023/06/10 07:40:46;;;;;;;7.82;6.82;;;;;;;26.26;42.37;101272.88;3583507;39;20299;-70
2023/06/10 07:43:12;;;;;;;8.65;6.63;;;;;;;26.37;42.66;101275.16;3583922;39;20468;-70
2023/06/10 07:45:40;;;;;;;7.65;6.85;;;;;;;26.38;42.09;101278.78;3583836;39;20129;-69
2023/06/10 07:48:06;;;;;;;8.80;6.47;;;;;;;26.54;42.21;101266.75;3583129;39;20060;-69
2023/06/10 07:50:31;;;;;;;7.93;6.28;;;;;;;26.66;41.90;101264.41;3584125;39;20068;-69
2023/06/10 07:52:57;;;;;;;9.02;6.57;;;;;;;26.90;41.24;101275.16;3582060;39;20059;-69
2023/06/10 07:55:23;;;;;;;9.55;6.18;;;;;;;27.06;40.13;101272.19;3584872;39;20056;-69
2023/06/10 07:57:49;;;;;;;11.18;6.85;;;;;;;26.64;41.32;101195.63;3585491;39;20065;-69
2023/06/10 08:00:15;;;;;;;8.45;5.90;;;;;;;27.21;41.38;101274.06;3584578;39;20056;-69
2023/06/10 08:02:41;;;;;;;10.60;6.43;;;;;;;27.33;41.12;101275.28;3586614;39;20051;-68
2023/06/10 08:05:07;;;;;;;9.20;6.30;;;;;;;27.43;39.90;101278.59;3584556;39;20056;-67
2023/06/10 08:07:32;;;;;;;7.38;6.35;;;;;;;27.40;39.84;101272.59;3584719;39;20132;-71
2023/06/10 08:09:58;;;;;;;7.82;6.10;;;;;;;27.04;39.52;101179.59;3583594;39;20055;-68
2023/06/10 08:12:24;;;;;;;7.20;5.88;;;;;;;27.73;39.32;101272.97;3583535;39;20115;-68
2023/06/10 08:14:49;;;;;;;7.05;5.97;;;;;;;27.77;39.07;101269.66;3583847;39;20061;-68
2023/06/10 08:17:15;;;;;;;6.38;5.72;;;;;;;27.85;38.81;101270.59;3585659;39;20072;-68
2023/06/10 08:19:41;;;;;;;7.25;5.75;;;;;;;28.02;38.79;101276.69;3589208;39;20348;-70
2023/06/10 08:22:06;;;;;;;7.03;6.25;;;;;;;28.05;37.65;101268.84;3587434;39;20413;-68
2023/06/10 08:24:33;;;;;;;7.47;5.93;;;;;;;28.00;37.36;101265.81;3586713;39;20057;-69
2023/06/10 08:26:58;;;;;;;8.15;5.65;;;;;;;28.04;38.45;101269.03;3583506;39;20630;-68
2023/06/10 08:29:25;;;;;;;7.80;5.47;;;;;;;28.28;37.65;101276.91;3586543;39;20063;-69
2023/06/10 08:31:51;;;;;;;8.88;6.45;;;;;;;28.39;37.46;101270.00;3583286;39;20068;-68
2023/06/10 08:34:16;;;;;;;13.48;11.32;;;;;;;28.50;38.25;101274.97;3583521;39;20062;-68
2023/06/10 08:36:44;;;;;;;12.20;10.55;;;;;;;28.56;37.39;101281.63;3585311;39;20048;-68
2023/06/10 08:39:10;;;;;;;8.45;6.15;;;;;;;28.79;37.85;101271.13;3585534;39;20466;-68
2023/06/10 08:41:43;;;;;;;8.90;5.95;;;;;;;28.86;36.25;101274.78;3587004;39;20357;-68
2023/06/10 08:44:27;;;;;;;7.25;5.72;;;;;;;28.47;35.94;101197.94;3586271;40;20303;-69
2023/06/10 08:46:58;;;;;;;8.48;5.75;;;;;;;28.88;36.40;101244.97;3586057;39;20052;-69
2023/06/10 08:49:30;;;;;;;7.05;4.88;;;;;;;29.25;35.47;101272.44;3583962;39;20052;-69
2023/06/10 08:52:02;;;;;;;6.30;5.70;;;;;;;29.50;35.82;101269.97;3582205;39;20409;-69
2023/06/10 08:54:37;;;;;;;6.22;5.63;;;;;;;29.55;35.59;101270.19;3590377;39;20535;-69
2023/06/10 08:57:06;;;;;;;6.85;5.55;;;;;;;29.65;35.00;101262.34;3584039;39;20504;-71
2023/06/10 08:59:32;;;;;;;10.55;5.88;;;;;;;29.77;34.82;101276.44;3582212;39;20438;-71
2023/06/10 09:01:58;;;;;;;7.00;5.85;;;;;;;29.83;34.47;101276.44;3582151;39;20072;-71
2023/06/10 09:04:25;;;;;;;8.30;6.50;;;;;;;29.95;34.86;101262.81;3583943;39;20125;-70
2023/06/10 09:06:52;;;;;;;12.45;11.13;;;;;;;30.12;32.99;101265.19;3591124;39;20053;-69
2023/06/10 09:09:20;;;;;;;11.15;8.60;;;;;;;30.29;33.71;101267.34;3582415;39;20203;-70
2023/06/10 09:11:46;;;;;;;8.30;5.40;;;;;;;30.39;33.14;101252.19;3587145;39;20054;-70
2023/06/10 09:14:12;;;;;;;8.48;5.70;;;;;;;30.28;34.71;101268.38;3586841;39;20060;-70
2023/06/10 09:16:39;;;;;;;8.38;5.60;;;;;;;30.46;34.00;101264.97;3582809;39;20052;-70
2023/06/10 09:19:07;;;;;;;7.85;5.60;;;;;;;30.50;33.20;101259.84;3585758;39;20055;-70
2023/06/10 09:21:35;;;;;;;6.25;5.22;;;;;;;30.67;33.72;101269.44;3589542;39;20052;-70
2023/06/10 09:24:02;;;;;;;5.90;5.15;;;;;;;30.74;32.42;101269.41;3584679;39;20115;-70
2023/06/10 09:26:31;;;;;;;6.35;5.18;;;;;;;30.94;33.27;101266.59;3583692;39;20409;-69
2023/06/10 09:29:08;;;;;;;6.60;5.43;;;;;;;31.02;33.36;101269.13;3587071;39;20085;-70
2023/06/10 09:31:40;;;;;;;6.63;4.88;;;;;;;30.88;31.94;101212.78;3586146;39;20070;-70
2023/06/10 09:34:09;;;;;;;5.35;4.85;;;;;;;31.32;30.73;101274.13;3585598;39;20141;-69
2023/06/10 09:36:37;;;;;;;6.70;5.13;;;;;;;31.45;31.73;101268.53;3578021;39;20539;-69
2023/06/10 09:39:04;;;;;;;6.57;5.03;;;;;;;31.49;31.86;101269.78;3582417;39;20385;-68
2023/06/10 09:41:39;;;;;;;7.40;4.30;;;;;;;31.54;31.23;101266.34;3582877;39;20059;-70
2023/06/10 09:44:14;;;;;;;15.15;13.63;;;;;;;31.72;31.00;101265.56;3583884;39;20400;-69
2023/06/10 09:46:41;;;;;;;6.90;6.15;;;;;;;31.87;30.21;101266.97;3586492;39;20063;-69
2023/06/10 09:49:06;;;;;;;7.18;5.00;;;;;;;32.05;30.45;101263.44;3583583;39;20746;-69
2023/06/10 09:51:32;;;;;;;7.18;5.10;;;;;;;32.01;29.87;101237.16;3587231;39;20079;-69
2023/06/10 09:54:02;;;;;;;5.28;4.75;;;;;;;32.12;30.05;101222.50;3586514;39;20280;-69
2023/06/10 09:56:36;;;;;;;7.35;5.10;;;;;;;32.41;29.20;101259.03;3585762;39;20743;-69
2023/06/10 09:59:05;;;;;;;7.30;5.10;;;;;;;32.43;29.32;101254.16;3585895;39;20052;-69
2023/06/10 10:01:33;;;;;;;7.07;4.65;;;;;;;32.53;28.25;101257.25;3581436;39;20584;-69
2023/06/10 10:04:00;;;;;;;5.65;5.05;;;;;;;32.54;30.04;101230.25;3582870;39;20047;-69
2023/06/10 10:06:28;;;;;;;9.38;5.40;;;;;;;32.79;28.75;101252.47;3579636;39;21433;-70
2023/06/10 10:08:54;;;;;;;7.18;4.72;;;;;;;32.99;28.35;101255.06;3585961;39;20066;-69
2023/06/10 10:11:22;;;;;;;5.70;4.97;;;;;;;33.27;28.35;101254.47;3581530;39;20069;-69
2023/06/10 10:13:52;;;;;;;6.75;4.82;;;;;;;33.23;27.65;101247.66;3574885;40;20095;-69
2023/06/10 10:16:33;;;;;;;6.50;5.18;;;;;;;33.18;28.77;101240.03;3581853;39;20062;-69
2023/06/10 10:19:30;;;;;;;6.18;4.85;;;;;;;33.39;28.41;101252.59;3582294;39;20060;-69
2023/06/10 10:22:09;;;;;;;5.75;4.72;;;;;;;33.46;27.37;101256.16;3582499;39;20286;-69
2023/06/10 10:24:46;;;;;;;6.90;5.00;;;;;;;33.44;27.04;101252.75;3584951;39;20071;-69
2023/06/10 10:27:26;;;;;;;5.65;4.32;;;;;;;33.58;27.99;101241.41;3583071;39;20279;-70
2023/06/10 10:29:54;;;;;;;7.22;4.60;;;;;;;33.58;28.05;101244.22;3578781;39;20138;-70
2023/06/10 10:32:35;;;;;;;5.63;5.00;;;;;;;33.46;26.95;101241.34;3584714;39;20074;-69
2023/06/10 10:35:16;;;;;;;5.72;4.70;;;;;;;33.47;26.95;101238.34;3578107;39;20133;-69
2023/06/10 10:37:43;;;;;;;5.70;4.97;;;;;;;33.57;27.33;101243.38;3586085;39;20372;-69
2023/06/10 10:40:11;;;;;;;6.10;4.60;;;;;;;33.83;26.76;101242.09;3585333;39;20404;-70
2023/06/10 10:42:39;;;;;;;6.20;4.45;;;;;;;33.94;28.80;101243.22;3585353;39;20352;-70
2023/06/10 10:45:08;;;;;;;5.15;4.75;;;;;;;33.90;26.45;101237.25;3581941;39;20118;-70
2023/06/10 10:47:37;;;;;;;5.10;4.70;;;;;;;34.01;26.63;101238.38;3579696;39;20123;-70
2023/06/10 10:50:17;;;;;;;5.22;4.82;;;;;;;34.05;27.18;101208.09;3579751;39;20098;-69
2023/06/10 10:53:04;;;;;;;8.38;5.53;;;;;;;34.04;25.68;101237.09;3580896;39;20048;-69
2023/06/10 10:55:31;;;;;;;6.47;4.93;;;;;;;34.12;26.19;101223.59;3581901;39;20109;-69
2023/06/10 10:58:08;;;;;;;5.18;4.55;;;;;;;34.09;25.66;101228.81;3586072;39;20055;-69
2023/06/10 11:00:38;;;;;;;6.57;4.72;;;;;;;34.16;25.29;101226.78;3578377;39;20067;-71
2023/06/10 11:03:03;;;;;;;7.57;4.70;;;;;;;34.12;26.53;101236.72;3572286;39;20085;-69
2023/06/10 11:05:38;;;;;;;5.60;4.95;;;;;;;34.25;25.61;101225.31;3583862;39;20075;-69
2023/06/10 11:08:06;;;;;;;5.72;4.90;;;;;;;34.46;25.50;101231.38;3585937;39;20064;-70
2023/06/10 11:10:34;;;;;;;4.90;4.50;;;;;;;34.71;25.28;101232.00;3584843;39;20063;-70
2023/06/10 11:13:07;;;;;;;7.55;4.75;;;;;;;34.68;25.37;101226.91;3586405;39;20111;-71
2023/06/10 11:15:33;;;;;;;6.45;4.65;;;;;;;34.85;25.22;101225.03;3583928;39;20388;-69
2023/06/10 11:18:26;;;;;;;5.05;4.47;;;;;;;34.86;25.55;101218.34;3580684;39;20056;-69
2023/06/10 11:21:01;;;;;;;6.18;5.20;;;;;;;34.93;25.20;101215.44;3584591;39;20052;-69
2023/06/10 11:23:41;;;;;;;5.05;4.28;;;;;;;35.04;25.04;101220.16;3583131;39;20247;-69
2023/06/10 11:26:13;;;;;;;11.65;4.53;;;;;;;34.87;24.22;101217.25;3587597;39;20056;-69